createdAt,value
2022-08-11T00:01:08.398Z,101448.66
2022-08-11T00:03:42.377Z,101452.56
2022-08-11T00:06:14.030Z,101448.03
2022-08-11T00:08:43.149Z,101452.56
2022-08-11T00:11:12.530Z,101452.44
2022-08-11T00:13:45.505Z,101453.41
2022-08-11T00:16:24.838Z,101443.81
2022-08-11T00:18:53.884Z,101455.50
2022-08-11T00:21:59.748Z,101452.72
2022-08-11T00:24:10.149Z,101453.63
2022-08-11T00:26:36.959Z,101457.75
2022-08-11T00:29:10.855Z,101460.22
2022-08-11T00:31:38.329Z,101468.50
2022-08-11T00:34:11.455Z,101463.81
2022-08-11T00:37:11.186Z,101471.44
2022-08-11T00:39:48.702Z,101462.44
2022-08-11T00:42:43.494Z,101464.94
2022-08-11T00:45:42.533Z,101468.06
2022-08-11T00:48:19.928Z,101460.75
2022-08-11T00:51:09.747Z,101463.41
2022-08-11T00:54:00.517Z,101467.47
2022-08-11T00:56:59.330Z,101460.84
2022-08-11T00:59:56.883Z,101465.59
2022-08-11T01:02:48.262Z,101473.25
2022-08-11T01:05:36.170Z,101468.88
2022-08-11T01:08:30.394Z,101469.53
2022-08-11T01:11:32.279Z,101472.31
2022-08-11T01:14:17.618Z,101480.06
2022-08-11T01:17:32.531Z,101470.44
2022-08-11T01:20:46.927Z,101468.66
2022-08-11T01:23:36.760Z,101473.31
2022-08-11T01:26:40.627Z,101465.44
2022-08-11T01:29:10.138Z,101472.16
2022-08-11T01:32:15.144Z,101476.28
2022-08-11T01:35:01.412Z,101469.47
2022-08-11T01:37:58.807Z,101472.91
2022-08-11T01:41:02.924Z,101478.22
2022-08-11T01:44:04.821Z,101477.34
2022-08-11T01:47:02.597Z,101477.25
2022-08-11T01:50:07.833Z,101466.50
2022-08-11T01:52:41.142Z,101449.44
2022-08-11T01:55:18.327Z,101458.81
2022-08-11T01:57:56.657Z,101461.50
2022-08-11T02:00:29.039Z,101468.06
2022-08-11T02:03:19.376Z,101462.97
2022-08-11T02:06:32.406Z,101472.81
2022-08-11T02:09:23.105Z,101467.16
2022-08-11T02:11:55.782Z,101461.78
2022-08-11T02:14:39.684Z,101456.13
2022-08-11T02:17:15.193Z,101449.59
2022-08-11T02:20:06.375Z,101454.09
2022-08-11T02:22:51.493Z,101454.50
2022-08-11T02:25:21.801Z,101445.69
2022-08-11T02:27:57.693Z,101452.91
2022-08-11T02:30:35.364Z,101436.53
2022-08-11T02:33:27.478Z,101437.03
2022-08-11T02:35:57.138Z,101448.44
2022-08-11T02:38:35.740Z,101452.25
2022-08-11T02:41:58.521Z,101456.03
2022-08-11T02:44:32.516Z,101453.75
2022-08-11T02:47:09.396Z,101440.44
2022-08-11T02:50:06.141Z,101445.50
2022-08-11T02:53:02.178Z,101443.72
2022-08-11T02:55:57.072Z,101457.28
2022-08-11T02:59:15.845Z,101459.44
2022-08-11T03:02:10.893Z,101450.59
2022-08-11T03:04:55.244Z,101456.53
2022-08-11T03:07:29.749Z,101455.00
2022-08-11T03:10:11.712Z,101458.91
2022-08-11T03:12:59.850Z,101464.44
2022-08-11T03:15:56.596Z,101460.00
2022-08-11T03:18:28.761Z,101454.38
2022-08-11T03:22:03.195Z,101446.41
2022-08-11T03:24:26.350Z,101448.72
2022-08-11T03:27:13.923Z,101446.53
2022-08-11T03:30:15.448Z,101442.56
2022-08-11T03:33:18.417Z,101443.69
2022-08-11T03:36:23.086Z,101440.06
2022-08-11T03:39:06.010Z,101430.81
2022-08-11T03:42:02.778Z,101432.66
2022-08-11T03:44:50.451Z,101426.84
2022-08-11T03:47:41.561Z,101426.09
2022-08-11T03:50:39.925Z,101426.22
2022-08-11T03:53:34.616Z,101418.69
2022-08-11T03:56:13.223Z,101423.53
2022-08-11T03:59:17.355Z,101419.09
2022-08-11T04:02:05.627Z,101419.72
2022-08-11T04:05:09.721Z,101419.31
2022-08-11T04:07:58.171Z,101414.03
2022-08-11T04:10:33.629Z,101417.03
2022-08-11T04:13:00.299Z,101415.25
2022-08-11T04:16:20.135Z,101422.88
2022-08-11T04:19:11.889Z,101424.91
2022-08-11T04:22:15.502Z,101422.53
2022-08-11T04:24:57.378Z,101420.19
2022-08-11T04:27:47.854Z,101421.13
2022-08-11T04:30:28.725Z,101427.72
2022-08-11T04:32:59.997Z,101424.94
2022-08-11T04:35:54.744Z,101426.34
2022-08-11T04:38:58.790Z,101427.66
2022-08-11T04:42:18.309Z,101428.94
2022-08-11T04:45:03.144Z,101434.19
2022-08-11T04:48:10.700Z,101429.13
2022-08-11T04:51:36.787Z,101437.50
2022-08-11T04:54:55.976Z,101434.84
2022-08-11T04:58:06.119Z,101435.91
2022-08-11T05:01:09.366Z,101437.44
2022-08-11T05:04:28.107Z,101446.69
2022-08-11T05:07:10.011Z,101443.47
2022-08-11T05:10:00.876Z,101450.56
2022-08-11T05:13:21.253Z,101453.13
2022-08-11T05:16:20.732Z,101459.25
2022-08-11T05:19:19.227Z,101452.53
2022-08-11T05:22:11.929Z,101450.31
2022-08-11T05:25:06.094Z,101456.97
2022-08-11T05:28:08.182Z,101467.19
2022-08-11T05:30:57.165Z,101451.41
2022-08-11T05:33:52.078Z,101465.28
2022-08-11T05:36:30.031Z,101463.75
2022-08-11T05:39:19.731Z,101468.31
2022-08-11T05:42:30.101Z,101473.47
2022-08-11T05:45:22.797Z,101467.63
2022-08-11T05:48:08.413Z,101463.66
2022-08-11T05:50:53.992Z,101461.81
2022-08-11T05:53:46.183Z,101459.56
2022-08-11T05:56:20.439Z,101456.75
2022-08-11T05:58:50.900Z,101459.34
2022-08-11T06:01:26.531Z,101459.47
2022-08-11T06:04:14.613Z,101468.69
2022-08-11T06:06:52.576Z,101458.53
2022-08-11T06:09:47.431Z,101457.13
2022-08-11T06:12:32.224Z,101466.00
2022-08-11T06:15:05.830Z,101470.91
2022-08-11T06:17:38.533Z,101472.06
2022-08-11T06:20:12.315Z,101467.91
2022-08-11T06:22:42.006Z,101466.94
2022-08-11T06:25:12.309Z,101462.53
2022-08-11T06:27:42.038Z,101470.28
2022-08-11T06:30:19.473Z,101465.00
2022-08-11T06:32:51.828Z,101464.38
2022-08-11T06:35:31.114Z,101464.72
2022-08-11T06:38:10.738Z,101457.78
2022-08-11T06:41:07.941Z,101462.06
2022-08-11T06:44:04.661Z,101465.53
2022-08-11T06:46:38.859Z,101455.97
2022-08-11T06:49:07.110Z,101453.75
2022-08-11T06:51:37.264Z,101450.91
2022-08-11T06:54:12.755Z,101452.19
2022-08-11T06:57:28.394Z,101454.34
2022-08-11T07:00:07.396Z,101449.41
2022-08-11T07:02:43.331Z,101458.91
2022-08-11T07:05:45.536Z,101462.31
2022-08-11T07:09:19.902Z,101452.94
2022-08-11T07:12:11.519Z,101458.19
2022-08-11T07:15:01.195Z,101461.31
2022-08-11T07:17:29.342Z,101455.56
2022-08-11T07:20:18.485Z,101447.78
2022-08-11T07:23:13.273Z,101452.78
2022-08-11T07:26:01.167Z,101450.19
2022-08-11T07:28:48.358Z,101446.09
2022-08-11T07:31:21.637Z,101442.59
2022-08-11T07:34:06.893Z,101434.56
2022-08-11T07:36:40.473Z,101436.91
2022-08-11T07:39:15.478Z,101435.78
2022-08-11T07:41:44.295Z,101437.28
2022-08-11T07:44:12.611Z,101437.75
2022-08-11T07:47:01.096Z,101435.41
2022-08-11T07:49:50.102Z,101438.13
2022-08-11T07:52:26.924Z,101432.59
2022-08-11T07:54:55.583Z,101437.63
2022-08-11T07:57:42.307Z,101430.53
2022-08-11T08:00:44.938Z,101436.28
2022-08-11T08:03:37.658Z,101430.66
2022-08-11T08:06:39.339Z,101434.69
2022-08-11T08:09:26.254Z,101436.78
2022-08-11T08:12:11.711Z,101430.38
2022-08-11T08:14:57.437Z,101438.75
2022-08-11T08:17:43.913Z,101424.38
2022-08-11T08:20:13.784Z,101423.16
2022-08-11T08:22:45.135Z,101432.97
2022-08-11T08:25:15.394Z,101427.94
2022-08-11T08:27:43.689Z,101427.19
2022-08-11T08:30:29.455Z,101421.19
2022-08-11T08:32:57.884Z,101413.41
2022-08-11T08:35:27.349Z,101421.53
2022-08-11T08:37:59.775Z,101417.47
2022-08-11T08:40:26.944Z,101422.38
2022-08-11T08:43:07.400Z,101420.13
2022-08-11T08:45:39.671Z,101411.56
2022-08-11T08:48:16.126Z,101411.84
2022-08-11T08:51:12.357Z,101413.63
2022-08-11T08:53:52.667Z,101407.09
2022-08-11T08:56:28.526Z,101402.94
2022-08-11T08:58:58.890Z,101415.16
2022-08-11T09:01:28.726Z,101416.47
2022-08-11T09:04:05.385Z,101406.50
2022-08-11T09:06:40.269Z,101409.78
2022-08-11T09:09:12.267Z,101398.47
2022-08-11T09:11:51.409Z,101397.75
2022-08-11T09:14:20.222Z,101398.59
2022-08-11T09:16:48.758Z,101395.94
2022-08-11T09:19:17.581Z,101393.50
2022-08-11T09:22:08.737Z,101382.63
2022-08-11T09:24:57.053Z,101379.81
2022-08-11T09:27:25.491Z,101382.72
2022-08-11T09:29:53.176Z,101388.25
2022-08-11T09:32:21.970Z,101388.81
2022-08-11T09:34:52.450Z,101390.91
2022-08-11T09:37:54.172Z,101388.66
2022-08-11T09:40:30.501Z,101386.66
2022-08-11T09:43:22.292Z,101388.66
2022-08-11T09:45:51.878Z,101382.22
2022-08-11T09:48:20.295Z,101373.06
2022-08-11T09:50:51.302Z,101386.03
2022-08-11T09:53:35.996Z,101366.78
2022-08-11T09:56:26.969Z,101360.88
2022-08-11T09:58:53.728Z,101365.06
2022-08-11T10:01:29.912Z,101364.66
2022-08-11T10:04:01.280Z,101351.06
2022-08-11T10:06:48.325Z,101356.34
2022-08-11T10:09:25.111Z,101351.50
2022-08-11T10:11:58.553Z,101357.06
2022-08-11T10:14:53.705Z,101350.53
2022-08-11T10:17:22.024Z,101340.53
2022-08-11T10:20:05.312Z,101328.34
2022-08-11T10:22:51.816Z,101330.25
2022-08-11T10:25:37.351Z,101331.78
2022-08-11T10:28:30.520Z,101326.09
2022-08-11T10:31:40.971Z,101326.34
2022-08-11T10:34:20.760Z,101330.22
2022-08-11T10:36:49.595Z,101323.25
2022-08-11T10:39:20.542Z,101325.84
2022-08-11T10:42:12.256Z,101313.09
2022-08-11T10:44:47.757Z,101315.03
2022-08-11T10:47:34.040Z,101307.38
2022-08-11T10:50:27.650Z,101312.13
2022-08-11T10:53:17.277Z,101310.41
2022-08-11T10:58:51.125Z,101297.38
2022-08-11T11:01:22.589Z,101306.53
2022-08-11T11:03:58.149Z,101305.53
2022-08-11T11:06:51.554Z,101301.09
2022-08-11T11:09:38.035Z,101305.41
2022-08-11T11:12:32.366Z,101308.03
2022-08-11T11:15:21.125Z,101300.44
2022-08-11T11:17:56.652Z,101298.88
2022-08-11T11:20:36.918Z,101295.88
2022-08-11T11:23:07.810Z,101285.53
2022-08-11T11:25:37.858Z,101287.69
2022-08-11T11:28:10.591Z,101281.78
2022-08-11T11:31:03.241Z,101283.84
2022-08-11T11:34:06.239Z,101290.72
2022-08-11T11:36:52.049Z,101291.75
2022-08-11T11:39:25.253Z,101276.44
2022-08-11T11:41:55.853Z,101274.97
2022-08-11T11:44:23.603Z,101272.91
2022-08-11T11:46:52.255Z,101273.59
2022-08-11T11:51:50.014Z,101276.97
2022-08-11T11:54:19.737Z,101262.22
2022-08-11T11:56:46.506Z,101265.34
2022-08-11T11:59:33.793Z,101253.38
2022-08-11T12:02:01.625Z,101261.91
2022-08-11T12:04:42.962Z,101258.59
2022-08-11T12:07:29.985Z,101244.06
2022-08-11T12:09:58.498Z,101249.28
2022-08-11T12:12:44.722Z,101244.53
2022-08-11T12:15:12.849Z,101249.06
2022-08-11T12:17:40.100Z,101249.50
2022-08-11T12:20:31.954Z,101256.19
2022-08-11T12:23:15.382Z,101241.25
2022-08-11T12:26:26.528Z,101242.00
2022-08-11T12:28:50.623Z,101237.06
2022-08-11T12:31:17.679Z,101230.69
2022-08-11T12:33:44.634Z,101227.22
2022-08-11T12:36:15.815Z,101221.09
2022-08-11T12:38:51.208Z,101231.25
2022-08-11T12:41:39.854Z,101222.50
2022-08-11T12:44:28.143Z,101216.16
2022-08-11T12:46:57.407Z,101214.66
2022-08-11T12:49:45.534Z,101213.59
2022-08-11T12:52:22.475Z,101213.47
2022-08-11T12:55:03.414Z,101219.34
2022-08-11T12:57:55.917Z,101213.25
2022-08-11T13:00:42.775Z,101207.59
2022-08-11T13:03:30.113Z,101224.13
2022-08-11T13:05:59.925Z,101200.25
2022-08-11T13:08:29.249Z,101202.16
2022-08-11T13:11:19.025Z,101197.22
2022-08-11T13:13:55.835Z,101187.31
2022-08-11T13:16:28.089Z,101183.72
2022-08-11T13:18:57.511Z,101188.91
2022-08-11T13:21:24.997Z,101182.69
2022-08-11T13:24:01.031Z,101183.44
2022-08-11T13:26:47.487Z,101184.34
2022-08-11T13:29:21.558Z,101173.53
2022-08-11T13:31:48.700Z,101177.47
2022-08-11T13:34:16.860Z,101164.03
2022-08-11T13:36:44.051Z,101163.38
2022-08-11T13:39:11.658Z,101157.28
2022-08-11T13:41:42.137Z,101153.91
2022-08-11T13:44:12.133Z,101151.97
2022-08-11T13:46:40.828Z,101145.50
2022-08-11T13:49:15.855Z,101148.97
2022-08-11T13:51:43.696Z,101134.63
2022-08-11T13:54:22.651Z,101146.50
2022-08-11T13:56:54.100Z,101141.31
2022-08-11T13:59:30.135Z,101147.75
2022-08-11T14:02:21.524Z,101132.72
2022-08-11T14:04:58.938Z,101132.59
2022-08-11T14:07:32.197Z,101122.81
2022-08-11T14:10:00.086Z,101130.63
2022-08-11T14:12:50.173Z,101132.53
2022-08-11T14:15:29.110Z,101129.69
2022-08-11T14:18:20.320Z,101123.00
2022-08-11T14:21:11.471Z,101130.03
2022-08-11T14:23:41.623Z,101126.81
2022-08-11T14:26:29.138Z,101119.09
2022-08-11T14:29:02.190Z,101109.59
2022-08-11T14:31:32.228Z,101102.66
2022-08-11T14:34:02.932Z,101103.84
2022-08-11T14:36:36.996Z,101103.31
2022-08-11T14:39:08.357Z,101102.34
2022-08-11T14:42:11.672Z,101091.47
2022-08-11T14:45:01.205Z,101106.41
2022-08-11T14:47:30.166Z,101098.94
2022-08-11T14:50:11.647Z,101082.09
2022-08-11T14:52:44.692Z,101081.53
2022-08-11T14:55:31.360Z,101086.22
2022-08-11T14:57:59.013Z,101088.25
2022-08-11T15:00:26.694Z,101092.97
2022-08-11T15:03:14.931Z,101092.69
2022-08-11T15:05:56.636Z,101083.81
2022-08-11T15:08:46.095Z,101083.25
2022-08-11T15:11:34.013Z,101093.81
2022-08-11T15:14:05.056Z,101091.16
2022-08-11T15:16:50.697Z,101083.00
2022-08-11T15:19:21.762Z,101078.06
2022-08-11T15:22:08.419Z,101076.75
2022-08-11T15:24:37.510Z,101074.81
2022-08-11T15:27:38.721Z,101078.09
2022-08-11T15:30:33.324Z,101084.56
2022-08-11T15:33:29.920Z,101079.56
2022-08-11T15:36:16.584Z,101085.16
2022-08-11T15:39:20.975Z,101068.19
2022-08-11T15:42:20.567Z,101070.34
2022-08-11T15:45:17.379Z,101065.97
2022-08-11T15:48:05.168Z,101071.22
2022-08-11T15:50:38.819Z,101067.19
2022-08-11T15:53:25.516Z,101062.06
2022-08-11T15:55:53.418Z,101069.50
2022-08-11T15:58:39.264Z,101066.44
2022-08-11T16:01:26.903Z,101065.66
2022-08-11T16:04:12.805Z,101060.03
2022-08-11T16:06:54.047Z,101062.72
2022-08-11T16:09:28.055Z,101050.56
2022-08-11T16:12:04.082Z,101050.59
2022-08-11T16:14:57.970Z,101059.00
2022-08-11T16:17:27.752Z,101057.03
2022-08-11T16:19:56.758Z,101049.19
2022-08-11T16:22:41.381Z,101043.69
2022-08-11T16:27:04.132Z,101037.00
2022-08-11T16:28:14.560Z,101031.47
2022-08-11T16:30:43.962Z,101037.94
2022-08-11T16:33:48.104Z,101034.16
2022-08-11T16:36:17.059Z,101038.06
2022-08-11T16:38:44.483Z,101037.75
2022-08-11T16:41:37.213Z,101030.19
2022-08-11T16:44:37.298Z,101033.19
2022-08-11T16:47:12.169Z,101039.63
2022-08-11T16:49:52.873Z,101036.63
2022-08-11T16:52:21.107Z,101023.50
2022-08-11T16:54:48.264Z,101039.88
2022-08-11T16:57:43.114Z,101030.63
2022-08-11T17:03:22.035Z,101030.22
2022-08-11T17:06:11.655Z,101036.13
2022-08-11T17:09:10.493Z,101038.78
2022-08-11T17:12:02.650Z,101040.81
2022-08-11T17:14:37.623Z,101041.13
2022-08-11T17:17:14.066Z,101037.69
2022-08-11T17:20:42.954Z,101033.28
2022-08-11T17:22:58.474Z,101037.00
2022-08-11T17:25:28.340Z,101036.03
2022-08-11T17:27:56.836Z,101038.28
2022-08-11T17:30:45.401Z,101044.31
2022-08-11T17:33:31.438Z,101042.47
2022-08-11T17:35:59.722Z,101042.06
2022-08-11T17:38:27.616Z,101039.81
2022-08-11T17:41:23.654Z,101045.03
2022-08-11T17:44:12.758Z,101046.47
2022-08-11T17:47:05.245Z,101043.19
2022-08-11T17:49:37.765Z,101048.03
2022-08-11T17:52:25.288Z,101044.59
2022-08-11T17:55:14.114Z,101044.91
2022-08-11T17:58:02.183Z,101046.06
2022-08-11T18:00:31.915Z,101039.22
2022-08-11T18:03:18.583Z,101041.09
2022-08-11T18:05:47.225Z,101044.66
2022-08-11T18:08:35.520Z,101053.06
2022-08-11T18:12:11.187Z,101047.75
2022-08-11T18:14:30.949Z,101047.78
2022-08-11T18:17:16.577Z,101047.63
2022-08-11T18:20:01.934Z,101050.63
2022-08-11T18:22:53.415Z,101054.63
2022-08-11T18:25:56.729Z,101054.78
2022-08-11T18:28:51.480Z,101048.97
2022-08-11T18:31:39.649Z,101061.78
2022-08-11T18:34:29.285Z,101062.59
2022-08-11T18:37:28.736Z,101059.06
2022-08-11T18:40:24.157Z,101059.63
2022-08-11T18:43:11.783Z,101060.34
2022-08-11T18:46:06.226Z,101070.19
2022-08-11T18:48:55.177Z,101068.31
2022-08-11T18:51:42.673Z,101067.03
2022-08-11T18:54:30.643Z,101070.59
2022-08-11T18:57:20.183Z,101065.47
2022-08-11T19:00:07.716Z,101067.03
2022-08-11T19:02:57.243Z,101062.78
2022-08-11T19:06:32.583Z,101069.88
2022-08-11T19:08:56.051Z,101073.88
2022-08-11T19:11:43.904Z,101064.47
2022-08-11T19:14:31.614Z,101074.31
2022-08-11T19:17:43.878Z,101080.13
2022-08-11T19:20:32.229Z,101078.16
2022-08-11T19:23:18.628Z,101081.13
2022-08-11T19:26:06.147Z,101076.28
2022-08-11T19:28:55.735Z,101081.56
2022-08-11T19:31:44.946Z,101077.72
2022-08-11T19:34:35.110Z,101081.41
2022-08-11T19:37:25.454Z,101077.44
2022-08-11T19:40:24.923Z,101071.91
2022-08-11T19:43:23.469Z,101086.25
2022-08-11T19:46:15.324Z,101083.94
2022-08-11T19:49:02.227Z,101080.72
2022-08-11T19:51:54.273Z,101091.34
2022-08-11T19:54:44.487Z,101096.41
2022-08-11T19:57:34.682Z,101092.56
2022-08-11T20:00:30.282Z,101087.03
2022-08-11T20:03:17.775Z,101095.31
2022-08-11T20:06:06.159Z,101095.44
2022-08-11T20:08:57.798Z,101088.38
2022-08-11T20:11:45.374Z,101090.13
2022-08-11T20:14:31.856Z,101079.50
2022-08-11T20:17:18.106Z,101082.34
2022-08-11T20:20:03.666Z,101085.13
2022-08-11T20:22:50.568Z,101086.31
2022-08-11T20:25:37.790Z,101099.66
2022-08-11T20:28:24.377Z,101101.66
2022-08-11T20:31:11.047Z,101101.72
2022-08-11T20:33:58.604Z,101109.91
2022-08-11T20:36:47.613Z,101109.16
2022-08-11T20:39:41.910Z,101114.09
2022-08-11T20:42:30.771Z,101117.19
2022-08-11T20:45:23.359Z,101117.34
2022-08-11T20:48:15.219Z,101128.59
2022-08-11T20:51:07.474Z,101131.38
2022-08-11T20:53:58.128Z,101137.50
2022-08-11T20:56:47.468Z,101134.69
2022-08-11T20:59:38.486Z,101142.53
2022-08-11T21:02:40.148Z,101144.50
2022-08-11T21:06:09.097Z,101147.09
2022-08-11T21:08:31.742Z,101146.94
2022-08-11T21:11:28.013Z,101147.59
2022-08-11T21:14:14.029Z,101154.38
2022-08-11T21:17:27.186Z,101146.75
2022-08-11T21:20:18.430Z,101160.53
2022-08-11T21:23:19.951Z,101158.25
2022-08-11T21:26:17.282Z,101149.81
2022-08-11T21:29:04.352Z,101156.03
2022-08-11T21:31:51.523Z,101165.69
2022-08-11T21:34:38.742Z,101165.13
2022-08-11T21:37:26.099Z,101159.19
2022-08-11T21:40:17.087Z,101158.97
2022-08-11T21:43:05.529Z,101159.34
2022-08-11T21:45:54.280Z,101159.25
2022-08-11T21:48:41.438Z,101137.75
2022-08-11T21:51:26.935Z,101143.59
2022-08-11T21:54:13.135Z,101145.06
2022-08-11T21:57:00.948Z,101145.19
2022-08-11T21:59:56.196Z,101144.44
2022-08-11T22:02:53.059Z,101144.72
2022-08-11T22:05:39.516Z,101149.25
2022-08-11T22:08:25.630Z,101149.84
2022-08-11T22:11:11.306Z,101147.41
2022-08-11T22:14:00.778Z,101150.38
2022-08-11T22:16:52.762Z,101156.94
2022-08-11T22:19:39.935Z,101152.94
2022-08-11T22:22:26.492Z,101159.06
2022-08-11T22:25:16.026Z,101147.03
2022-08-11T22:28:01.723Z,101141.97
2022-08-11T22:30:47.237Z,101143.19
2022-08-11T22:33:33.335Z,101138.81
2022-08-11T22:36:19.783Z,101147.38
2022-08-11T22:39:10.089Z,101143.34
2022-08-11T22:41:55.576Z,101134.25
2022-08-11T22:44:41.060Z,101123.13
2022-08-11T22:47:40.291Z,101123.72
2022-08-11T22:50:29.138Z,101116.84
2022-08-11T22:53:16.856Z,101115.13
2022-08-11T22:56:03.066Z,101114.31
2022-08-11T22:58:48.672Z,101108.75
2022-08-11T23:01:37.918Z,101121.41
2022-08-11T23:04:41.538Z,101118.84
2022-08-11T23:07:50.735Z,101127.09
2022-08-11T23:10:33.316Z,101125.59
2022-08-11T23:13:22.316Z,101123.06
2022-08-11T23:16:08.856Z,101132.00
2022-08-11T23:18:54.803Z,101130.75
2022-08-11T23:21:40.425Z,101128.03
2022-08-11T23:24:26.688Z,101127.44
2022-08-11T23:27:12.573Z,101129.78
2022-08-11T23:30:00.281Z,101131.00
2022-08-11T23:32:49.403Z,101126.31
2022-08-11T23:35:40.083Z,101129.53
2022-08-11T23:38:36.216Z,101129.03
2022-08-11T23:41:22.433Z,101131.13
2022-08-11T23:44:08.732Z,101130.50
2022-08-11T23:46:54.750Z,101134.28
2022-08-11T23:49:40.989Z,101141.41
2022-08-11T23:52:26.691Z,101143.34
2022-08-11T23:55:12.842Z,101145.66
2022-08-11T23:57:58.309Z,101143.78
